createdAt,value
2018-11-14T00:02:05.577Z,1438.03
2018-11-14T00:04:33.436Z,1508.63
2018-11-14T00:07:01.295Z,1329.93
2018-11-14T00:09:29.156Z,1850.43
2018-11-14T00:11:57.013Z,1682.63
2018-11-14T00:14:24.867Z,1441.73
2018-11-14T00:16:52.724Z,1704.77
2018-11-14T00:19:20.651Z,1432.87
2018-11-14T00:21:48.453Z,1527.90
2018-11-14T00:24:16.333Z,1405.73
2018-11-14T00:26:44.207Z,1376.77
2018-11-14T00:29:12.097Z,1644.40
2018-11-14T00:31:39.978Z,1416.57
2018-11-14T00:34:07.827Z,1416.20
2018-11-14T00:36:35.680Z,1690.20
2018-11-14T00:39:04.353Z,1431.40
2018-11-14T00:41:32.215Z,1999.90
2018-11-14T00:44:00.075Z,1530.33
2018-11-14T00:46:28.027Z,1699.47
2018-11-14T00:48:55.883Z,1324.03
2018-11-14T00:51:23.740Z,1407.13
2018-11-14T00:53:51.615Z,1395.67
2018-11-14T00:56:19.496Z,1304.83
2018-11-14T00:58:47.363Z,1654.87
2018-11-14T01:01:15.227Z,1435.13
2018-11-14T01:03:43.100Z,1460.53
2018-11-14T01:06:10.946Z,1364.67
2018-11-14T01:08:38.807Z,1648.07
2018-11-14T01:11:06.662Z,1367.03
2018-11-14T01:13:34.524Z,1376.00
2018-11-14T01:16:02.391Z,1586.83
2018-11-14T01:18:30.251Z,1350.33
2018-11-14T01:20:58.123Z,1323.53
2018-11-14T01:23:25.982Z,1385.07
2018-11-14T01:25:53.847Z,1437.90
2018-11-14T01:28:21.707Z,1360.93
2018-11-14T01:30:49.563Z,1387.10
2018-11-14T01:33:17.422Z,1557.20
2018-11-14T01:35:45.348Z,1413.63
2018-11-14T01:38:13.152Z,1288.23
2018-11-14T01:40:41.012Z,1288.73
2018-11-14T01:43:08.882Z,1498.63
2018-11-14T01:45:36.745Z,1566.17
2018-11-14T01:48:04.927Z,1433.93
2018-11-14T01:50:32.794Z,1551.50
2018-11-14T01:53:00.656Z,1656.27
2018-11-14T01:55:28.516Z,1496.20
2018-11-14T01:57:56.376Z,1300.47
2018-11-14T02:00:25.207Z,1456.73
2018-11-14T02:02:53.516Z,1371.60
2018-11-14T02:05:21.396Z,1625.23
2018-11-14T02:07:49.423Z,1996.67
2018-11-14T02:10:18.531Z,1591.07
2018-11-14T02:12:46.804Z,1430.73
2018-11-14T02:15:18.462Z,1384.30
2018-11-14T02:17:46.359Z,1555.47
2018-11-14T02:20:14.667Z,1442.53
2018-11-14T02:22:43.384Z,1375.63
2018-11-14T02:25:11.934Z,1308.50
2018-11-14T02:27:39.815Z,1425.60
2018-11-14T02:30:08.699Z,1193.40
2018-11-14T02:32:36.562Z,1251.93
2018-11-14T02:35:05.007Z,1581.63
2018-11-14T02:37:33.076Z,1298.47
2018-11-14T02:40:01.131Z,1583.17
2018-11-14T02:42:29.091Z,1299.67
2018-11-14T02:44:57.210Z,1240.30
2018-11-14T02:47:25.087Z,1341.30
2018-11-14T02:49:53.287Z,1266.77
2018-11-14T02:52:21.401Z,1240.50
2018-11-14T02:54:49.579Z,1197.50
2018-11-14T02:57:17.691Z,1275.87
2018-11-14T02:59:45.815Z,1420.10
2018-11-14T03:02:13.800Z,1212.57
2018-11-14T03:04:41.778Z,1215.73
2018-11-14T03:07:09.938Z,1246.17
2018-11-14T03:09:37.965Z,1328.80
2018-11-14T03:12:06.295Z,1214.87
2018-11-14T03:14:34.131Z,1204.07
2018-11-14T03:17:02.269Z,1463.03
2018-11-14T03:19:30.120Z,1137.33
2018-11-14T03:21:58.010Z,1247.60
2018-11-14T03:24:25.914Z,1216.97
2018-11-14T03:26:53.959Z,1256.10
2018-11-14T03:29:21.934Z,1230.77
2018-11-14T03:31:49.990Z,1322.20
2018-11-14T03:34:17.847Z,1197.53
2018-11-14T03:36:46.006Z,1210.90
2018-11-14T03:39:13.864Z,1178.43
2018-11-14T03:41:41.833Z,1805.57
2018-11-14T03:44:09.915Z,1337.93
2018-11-14T03:46:37.775Z,1265.13
2018-11-14T03:49:05.782Z,1592.93
2018-11-14T03:51:33.832Z,1328.53
2018-11-14T03:54:01.716Z,1205.10
2018-11-14T03:56:29.731Z,1409.73
2018-11-14T03:58:57.943Z,1566.10
2018-11-14T04:01:25.795Z,1555.13
2018-11-14T04:03:53.889Z,1227.07
2018-11-14T04:06:21.954Z,1296.87
2018-11-14T04:08:49.967Z,1347.10
2018-11-14T04:11:18.159Z,1265.47
2018-11-14T04:13:46.107Z,1586.57
2018-11-14T04:16:13.963Z,1373.90
2018-11-14T04:18:41.891Z,1435.63
2018-11-14T04:21:09.950Z,1299.87
2018-11-14T04:23:44.534Z,1162.60
2018-11-14T04:26:12.461Z,1271.77
2018-11-14T04:28:40.611Z,1198.93
2018-11-14T04:31:08.506Z,1158.30
2018-11-14T04:33:36.528Z,1351.97
2018-11-14T04:36:04.710Z,1339.57
2018-11-14T04:38:32.611Z,1310.07
2018-11-14T04:41:00.705Z,1173.77
2018-11-14T04:43:29.071Z,1193.30
2018-11-14T04:45:57.211Z,1250.43
2018-11-14T04:48:25.131Z,1216.43
2018-11-14T04:50:52.991Z,1217.23
2018-11-14T04:53:20.939Z,1341.20
2018-11-14T04:55:48.783Z,1272.20
2018-11-14T04:58:16.647Z,1321.60
2018-11-14T05:00:44.499Z,1318.23
2018-11-14T05:03:12.451Z,1471.20
2018-11-14T05:05:40.303Z,1345.77
2018-11-14T05:08:08.186Z,1273.97
2018-11-14T05:10:36.039Z,1362.33
2018-11-14T05:13:03.938Z,1744.50
2018-11-14T05:15:31.760Z,1353.60
2018-11-14T05:17:59.618Z,1348.50
2018-11-14T05:20:27.475Z,1399.03
2018-11-14T05:22:55.335Z,1195.90
2018-11-14T05:25:23.201Z,1291.57
2018-11-14T05:27:51.060Z,1148.87
2018-11-14T05:30:20.077Z,1243.83
2018-11-14T05:32:48.738Z,1294.37
2018-11-14T05:35:16.916Z,1253.90
2018-11-14T05:37:44.962Z,1188.33
2018-11-14T05:40:16.181Z,1209.30
2018-11-14T05:42:44.664Z,1943.20
2018-11-14T05:45:14.709Z,1261.43
2018-11-14T05:47:42.743Z,1337.30
2018-11-14T05:50:12.336Z,1352.57
2018-11-14T05:52:40.409Z,1421.83
2018-11-14T05:55:09.097Z,1531.57
2018-11-14T05:57:37.046Z,1558.20
2018-11-14T06:00:07.330Z,1771.93
2018-11-14T06:02:35.186Z,1197.80
2018-11-14T06:05:03.067Z,1242.77
2018-11-14T06:07:30.931Z,1337.87
2018-11-14T06:09:58.795Z,1511.43
2018-11-14T06:12:26.655Z,1996.13
2018-11-14T06:14:54.526Z,1256.73
2018-11-14T06:17:22.382Z,1438.00
2018-11-14T06:22:25.135Z,1346.90
2018-11-14T06:24:53.003Z,1235.90
2018-11-14T06:27:20.855Z,1640.70
2018-11-14T06:29:48.806Z,1485.67
2018-11-14T06:32:16.591Z,1352.23
2018-11-14T06:34:44.460Z,1337.23
2018-11-14T06:37:12.315Z,1894.33
2018-11-14T06:39:40.187Z,1420.47
2018-11-14T06:42:08.038Z,1467.97
2018-11-14T06:44:35.902Z,1186.50
2018-11-14T06:47:03.776Z,1350.00
2018-11-14T06:49:31.639Z,1384.70
2018-11-14T06:51:59.495Z,1263.97
2018-11-14T06:54:27.363Z,1660.90
2018-11-14T06:56:55.218Z,1350.07
2018-11-14T06:59:23.120Z,1139.20
2018-11-14T07:01:50.954Z,1109.50
2018-11-14T07:04:18.832Z,1459.97
2018-11-14T07:06:46.691Z,1540.20
2018-11-14T07:09:14.559Z,1553.33
2018-11-14T07:11:42.416Z,1411.20
2018-11-14T07:14:10.287Z,1361.07
2018-11-14T07:16:38.142Z,1111.70
2018-11-14T07:19:06.052Z,1999.90
2018-11-14T07:21:33.906Z,1258.97
2018-11-14T07:24:01.774Z,1153.20
2018-11-14T07:26:29.636Z,1370.40
2018-11-14T07:28:57.509Z,1534.27
2018-11-14T07:31:25.363Z,1151.20
2018-11-14T07:33:53.251Z,1025.23
2018-11-14T07:36:21.171Z,1160.17
2018-11-14T07:38:49.939Z,1103.97
2018-11-14T07:41:18.711Z,1241.17
2018-11-14T07:43:46.683Z,1245.20
2018-11-14T07:46:14.858Z,1133.67
2018-11-14T07:48:43.350Z,1072.33
2018-11-14T07:51:11.203Z,1100.67
2018-11-14T07:53:39.050Z,1121.20
2018-11-14T07:56:07.151Z,1134.63
2018-11-14T07:58:35.051Z,1222.23
2018-11-14T08:01:02.920Z,1323.03
2018-11-14T08:03:30.783Z,1674.10
2018-11-14T08:05:58.704Z,1188.57
2018-11-14T08:08:26.643Z,1140.10
2018-11-14T08:10:54.519Z,1282.60
2018-11-14T08:13:23.638Z,1118.03
2018-11-14T08:15:53.079Z,1133.00
2018-11-14T08:18:21.124Z,1147.50
2018-11-14T08:20:49.195Z,1177.70
2018-11-14T08:23:17.047Z,1551.63
2018-11-14T08:25:44.903Z,1219.70
2018-11-14T08:28:13.196Z,1200.10
2018-11-14T08:30:41.399Z,1518.40
2018-11-14T08:33:09.192Z,1310.90
2018-11-14T08:35:37.136Z,1145.33
2018-11-14T08:38:05.164Z,1250.37
2018-11-14T08:40:33.087Z,1230.37
2018-11-14T08:43:01.112Z,1080.67
2018-11-14T08:45:28.987Z,1291.57
2018-11-14T08:47:56.895Z,1257.37
2018-11-14T08:50:24.778Z,1380.43
2018-11-14T08:52:52.648Z,1373.90
2018-11-14T08:55:20.516Z,1209.63
2018-11-14T08:57:48.460Z,1266.13
2018-11-14T09:00:18.458Z,1340.93
2018-11-14T09:02:46.759Z,1219.70
2018-11-14T09:05:14.634Z,1164.23
2018-11-14T09:07:42.531Z,1630.73
2018-11-14T09:10:14.817Z,1566.83
2018-11-14T09:12:43.116Z,1437.77
2018-11-14T09:15:12.444Z,1445.13
2018-11-14T09:17:40.275Z,1209.93
2018-11-14T09:20:08.772Z,1868.33
2018-11-14T09:22:36.906Z,1166.87
2018-11-14T09:25:05.914Z,1206.27
2018-11-14T09:27:33.762Z,1446.73
2018-11-14T09:30:01.626Z,1801.83
2018-11-14T09:32:29.489Z,1469.60
2018-11-14T09:34:57.346Z,1667.03
2018-11-14T09:37:25.198Z,1945.23
2018-11-14T09:39:53.065Z,1172.50
2018-11-14T09:42:21.032Z,1615.40
2018-11-14T09:44:48.938Z,1480.53
2018-11-14T09:47:16.850Z,1519.63
2018-11-14T09:49:44.723Z,1691.80
2018-11-14T09:52:12.575Z,1575.33
2018-11-14T09:54:40.447Z,1827.83
2018-11-14T09:57:08.394Z,1259.43
2018-11-14T09:59:36.152Z,1507.70
2018-11-14T10:02:04.031Z,1953.93
2018-11-14T10:04:31.889Z,1709.90
2018-11-14T10:06:59.759Z,1628.83
2018-11-14T10:09:27.611Z,1343.23
2018-11-14T10:11:55.512Z,1819.43
2018-11-14T10:14:23.367Z,1516.53
2018-11-14T10:16:51.309Z,1621.43
2018-11-14T10:19:19.302Z,1968.93
2018-11-14T10:21:47.212Z,1874.13
2018-11-14T10:24:15.066Z,1330.90
2018-11-14T10:26:42.928Z,1598.23
2018-11-14T10:29:10.779Z,1954.30
2018-11-14T10:31:38.663Z,1666.90
2018-11-14T10:34:06.513Z,1713.50
2018-11-14T10:36:34.376Z,1506.30
2018-11-14T10:39:02.239Z,1466.10
2018-11-14T10:41:30.086Z,1718.87
2018-11-14T10:43:57.948Z,1560.90
2018-11-14T10:46:25.831Z,1364.73
2018-11-14T10:48:53.683Z,1705.90
2018-11-14T10:51:21.681Z,1438.87
2018-11-14T10:53:49.559Z,1485.20
2018-11-14T10:56:17.471Z,1335.17
2018-11-14T10:58:45.393Z,1660.87
2018-11-14T11:01:18.760Z,1603.23
2018-11-14T11:03:52.302Z,1622.00
2018-11-14T11:06:36.634Z,1519.47
2018-11-14T11:09:13.295Z,1999.90
2018-11-14T11:11:53.280Z,1787.53
2018-11-14T11:14:26.843Z,1639.27
2018-11-14T11:17:00.372Z,1796.87
2018-11-14T11:19:29.462Z,1732.17
2018-11-14T11:21:57.462Z,1586.30
2018-11-14T11:24:25.387Z,1934.40
2018-11-14T11:26:53.295Z,1649.17
2018-11-14T11:29:21.156Z,1748.20
2018-11-14T11:31:49.076Z,1809.37
2018-11-14T11:34:16.970Z,1675.80
2018-11-14T11:36:44.870Z,1936.13
2018-11-14T11:39:14.392Z,1524.50
2018-11-14T11:41:42.769Z,1648.07
2018-11-14T11:44:10.731Z,1716.43
2018-11-14T11:46:39.411Z,1643.73
2018-11-14T11:49:07.354Z,1968.33
2018-11-14T11:51:35.295Z,1980.40
2018-11-14T11:54:03.235Z,1983.50
2018-11-14T11:56:31.329Z,1999.90
2018-11-14T11:58:59.462Z,1651.73
2018-11-14T12:01:27.567Z,1999.90
2018-11-14T12:03:55.463Z,1580.53
2018-11-14T12:06:23.375Z,1713.37
2018-11-14T12:08:51.198Z,1895.63
2018-11-14T12:11:19.055Z,1723.13
2018-11-14T12:13:46.963Z,1656.33
2018-11-14T12:16:14.780Z,1413.73
2018-11-14T12:18:42.676Z,1721.07
2018-11-14T12:21:10.522Z,1999.90
2018-11-14T12:23:38.400Z,1999.90
2018-11-14T12:26:06.236Z,1922.37
2018-11-14T12:28:34.231Z,1745.03
2018-11-14T12:31:02.194Z,1798.10
2018-11-14T12:33:29.943Z,1977.47
2018-11-14T12:35:57.800Z,1999.90
2018-11-14T12:38:25.751Z,1851.10
2018-11-14T12:40:53.618Z,1749.27
2018-11-14T12:43:21.475Z,1999.90
2018-11-14T12:45:49.334Z,1965.73
2018-11-14T12:48:17.177Z,1835.40
2018-11-14T12:50:45.040Z,1979.13
2018-11-14T12:53:12.881Z,1999.90
2018-11-14T12:55:40.743Z,1999.90
2018-11-14T12:58:08.591Z,1817.20
2018-11-14T13:00:36.443Z,1791.23
2018-11-14T13:03:04.323Z,1999.90
2018-11-14T13:05:32.185Z,1848.60
2018-11-14T13:08:00.035Z,1788.97
2018-11-14T13:10:27.886Z,1523.33
2018-11-14T13:12:55.735Z,1660.47
2018-11-14T13:15:23.591Z,1508.83
2018-11-14T13:17:51.435Z,1692.67
2018-11-14T13:20:20.772Z,1665.13
2018-11-14T13:22:48.619Z,1608.90
2018-11-14T13:25:16.695Z,1719.43
2018-11-14T13:27:45.730Z,1741.00
2018-11-14T13:30:19.078Z,1856.20
2018-11-14T13:32:47.599Z,1929.73
2018-11-14T13:35:16.686Z,1800.07
2018-11-14T13:37:45.384Z,1810.40
2018-11-14T13:40:13.272Z,1546.77
2018-11-14T13:42:41.324Z,1864.00
2018-11-14T13:45:10.424Z,1817.47
2018-11-14T13:47:39.007Z,1851.33
2018-11-14T13:50:08.524Z,1849.70
2018-11-14T13:52:36.521Z,1777.63
2018-11-14T13:55:04.864Z,1771.93
2018-11-14T13:57:32.719Z,1761.03
2018-11-14T14:00:00.759Z,1559.00
2018-11-14T14:02:28.609Z,1675.50
2018-11-14T14:04:56.546Z,1697.20
2018-11-14T14:07:24.422Z,1880.83
2018-11-14T14:09:52.302Z,1828.63
2018-11-14T14:12:20.176Z,1757.03
2018-11-14T14:14:48.035Z,1999.73
2018-11-14T14:17:15.883Z,1994.20
2018-11-14T14:19:43.943Z,1943.43
2018-11-14T14:22:11.812Z,1999.90
2018-11-14T14:24:39.656Z,1816.33
2018-11-14T14:27:07.510Z,1727.00
2018-11-14T14:29:35.359Z,1874.97
2018-11-14T14:32:03.215Z,1749.57
2018-11-14T14:34:31.062Z,1665.73
2018-11-14T14:36:58.917Z,1674.90
2018-11-14T14:39:26.762Z,1735.90
2018-11-14T14:41:54.623Z,1586.53
2018-11-14T14:44:22.475Z,1563.67
2018-11-14T14:46:50.339Z,1520.73
2018-11-14T14:49:18.192Z,1513.23
2018-11-14T14:51:46.060Z,1505.83
2018-11-14T14:54:13.983Z,1491.90
2018-11-14T14:56:41.846Z,1572.73
2018-11-14T14:59:09.701Z,1592.07
2018-11-14T15:01:37.562Z,1599.13
2018-11-14T15:04:05.453Z,1461.60
2018-11-14T15:06:33.301Z,1533.93
2018-11-14T15:09:01.172Z,1461.33
2018-11-14T15:11:29.032Z,1520.50
2018-11-14T15:13:56.882Z,1533.97
2018-11-14T15:16:24.743Z,1565.43
2018-11-14T15:18:52.595Z,1526.20
2018-11-14T15:21:20.458Z,1453.83
2018-11-14T15:23:48.298Z,1561.67
2018-11-14T15:26:16.162Z,1489.77
2018-11-14T15:28:44.058Z,1556.47
2018-11-14T15:31:11.898Z,1613.07
2018-11-14T15:33:39.751Z,1561.07
2018-11-14T15:36:07.715Z,1519.47
2018-11-14T15:38:35.471Z,1503.97
2018-11-14T15:41:03.330Z,1500.43
2018-11-14T15:43:31.192Z,1478.20
2018-11-14T15:45:59.166Z,1412.37
2018-11-14T15:48:27.019Z,1375.30
2018-11-14T15:50:54.882Z,1388.13
2018-11-14T15:53:22.739Z,1382.20
2018-11-14T15:55:50.624Z,1403.40
2018-11-14T15:58:18.483Z,1393.93
2018-11-14T16:00:46.331Z,1376.77
2018-11-14T16:03:14.193Z,1435.17
2018-11-14T16:05:42.068Z,1371.30
2018-11-14T16:08:09.916Z,1454.27
2018-11-14T16:10:37.767Z,1449.30
2018-11-14T16:13:05.638Z,1448.80
2018-11-14T16:15:34.774Z,1372.93
2018-11-14T16:18:02.715Z,1351.20
2018-11-14T16:20:30.502Z,1405.40
2018-11-14T16:22:58.371Z,1403.87
2018-11-14T16:25:26.959Z,1365.90
2018-11-14T16:27:56.104Z,1427.93
2018-11-14T16:30:25.246Z,1390.07
2018-11-14T16:32:54.356Z,1434.23
2018-11-14T16:35:22.246Z,1353.43
2018-11-14T16:37:50.126Z,1400.40
2018-11-14T16:40:20.131Z,1423.10
2018-11-14T16:42:48.507Z,1369.23
2018-11-14T16:45:16.443Z,1343.43
2018-11-14T16:47:44.476Z,1360.30
2018-11-14T16:50:13.324Z,1360.40
2018-11-14T16:52:41.219Z,1433.40
2018-11-14T16:55:10.365Z,1411.47
2018-11-14T16:57:39.079Z,1359.20
2018-11-14T17:00:08.357Z,1337.07
2018-11-14T17:02:36.205Z,1338.87
2018-11-14T17:05:04.579Z,1340.20
2018-11-14T17:07:32.447Z,1276.10
2018-11-14T17:10:00.318Z,1333.03
2018-11-14T17:12:29.139Z,1334.60
2018-11-14T17:14:57.061Z,1309.60
2018-11-14T17:17:24.880Z,1270.10
2018-11-14T17:19:52.796Z,1308.03
2018-11-14T17:22:20.647Z,1357.97
2018-11-14T17:24:48.573Z,1321.73
2018-11-14T17:27:16.566Z,1363.13
2018-11-14T17:29:44.464Z,1360.63
2018-11-14T17:32:12.329Z,1407.17
2018-11-14T17:34:40.220Z,1520.27
2018-11-14T17:37:08.151Z,1536.70
2018-11-14T17:39:36.050Z,1446.20
2018-11-14T17:42:04.158Z,1501.53
2018-11-14T17:44:31.894Z,1493.80
2018-11-14T17:46:59.955Z,1392.40
2018-11-14T17:49:27.838Z,1381.87
2018-11-14T17:51:55.783Z,1481.17
2018-11-14T17:54:23.731Z,1562.33
2018-11-14T17:56:59.585Z,1632.17
2018-11-14T17:59:28.098Z,1919.23
2018-11-14T18:01:56.673Z,1804.03
2018-11-14T18:04:24.601Z,1722.77
2018-11-14T18:06:52.575Z,1711.67
2018-11-14T18:09:20.450Z,1779.87
2018-11-14T18:11:48.321Z,1794.17
2018-11-14T18:14:16.216Z,1882.77
2018-11-14T18:16:44.076Z,1718.83
2018-11-14T18:19:12.045Z,1827.67
2018-11-14T18:21:40.092Z,1784.07
2018-11-14T18:24:07.957Z,1833.73
2018-11-14T18:26:35.808Z,1758.43
2018-11-14T18:29:03.683Z,1695.90
2018-11-14T18:31:31.547Z,1736.10
2018-11-14T18:33:59.427Z,1722.73
2018-11-14T18:36:28.976Z,1875.30
2018-11-14T18:38:56.839Z,1800.50
2018-11-14T18:41:24.781Z,1738.43
2018-11-14T18:43:52.649Z,1826.13
2018-11-14T18:46:20.596Z,1999.90
2018-11-14T18:48:48.630Z,1877.67
2018-11-14T18:51:16.492Z,1788.03
2018-11-14T18:53:44.373Z,1969.53
2018-11-14T18:56:12.288Z,1942.30
2018-11-14T18:58:40.127Z,1999.90
2018-11-14T19:01:07.991Z,1999.90
2018-11-14T19:03:35.859Z,1999.90
2018-11-14T19:06:03.766Z,1999.90
2018-11-14T19:08:31.724Z,1999.90
2018-11-14T19:11:00.068Z,1999.90
2018-11-14T19:13:27.940Z,1999.90
2018-11-14T19:15:55.803Z,1999.90
2018-11-14T19:18:23.875Z,1999.90
2018-11-14T19:20:51.720Z,1999.90
2018-11-14T19:23:19.566Z,1999.90
2018-11-14T19:25:47.463Z,1999.90
2018-11-14T19:28:15.312Z,1998.33
2018-11-14T19:30:49.233Z,1999.90
2018-11-14T19:33:50.491Z,1999.90
2018-11-14T19:36:22.779Z,1999.90
2018-11-14T19:38:53.573Z,1999.90
2018-11-14T19:41:23.065Z,1999.90
2018-11-14T19:43:53.212Z,1999.90
2018-11-14T19:49:19.704Z,1999.90
2018-11-14T19:51:47.823Z,1999.90
2018-11-14T19:54:15.703Z,1999.90
2018-11-14T19:56:43.556Z,1999.90
2018-11-14T19:59:11.631Z,1999.90
2018-11-14T20:01:39.491Z,1999.90
2018-11-14T20:04:07.390Z,1999.90
2018-11-14T20:06:35.345Z,1999.90
2018-11-14T20:09:11.955Z,1999.90
2018-11-14T20:11:40.510Z,1999.90
2018-11-14T20:14:11.256Z,1999.90
2018-11-14T20:16:39.091Z,1999.90
2018-11-14T20:19:07.335Z,1999.90
2018-11-14T20:21:41.982Z,1999.90
2018-11-14T20:24:09.831Z,1999.90
2018-11-14T20:26:41.695Z,1999.90
2018-11-14T20:29:12.420Z,1999.90
2018-11-14T20:31:40.385Z,1999.90
2018-11-14T20:34:08.121Z,1999.90
2018-11-14T20:36:35.978Z,1999.90
2018-11-14T20:39:06.107Z,1988.67
2018-11-14T20:41:34.182Z,1982.30
2018-11-14T20:44:02.037Z,1899.70
2018-11-14T20:46:29.883Z,1891.53
2018-11-14T20:48:57.882Z,1999.90
2018-11-14T20:51:25.684Z,1969.10
2018-11-14T20:53:53.527Z,1987.50
2018-11-14T20:56:21.445Z,1999.90
2018-11-14T20:58:49.324Z,1965.87
2018-11-14T21:01:17.174Z,1967.43
2018-11-14T21:03:45.058Z,1917.73
2018-11-14T21:06:12.902Z,1969.40
2018-11-14T21:08:40.752Z,1956.20
2018-11-14T21:11:08.606Z,1881.47
2018-11-14T21:13:36.458Z,1912.07
2018-11-14T21:16:04.356Z,1845.63
2018-11-14T21:18:32.203Z,1790.27
2018-11-14T21:21:00.099Z,1954.27
2018-11-14T21:23:27.955Z,1999.90
2018-11-14T21:25:55.792Z,1999.90
2018-11-14T21:28:23.667Z,1954.47
2018-11-14T21:30:51.518Z,1925.80
2018-11-14T21:33:19.379Z,1924.50
2018-11-14T21:35:47.327Z,1986.93
2018-11-14T21:38:15.222Z,1839.87
2018-11-14T21:40:43.045Z,1857.07
2018-11-14T21:43:11.791Z,1761.80
2018-11-14T21:45:39.712Z,1796.77
2018-11-14T21:48:14.804Z,1720.67
2018-11-14T21:50:43.075Z,1894.93
2018-11-14T21:53:10.960Z,1817.20
2018-11-14T21:55:38.796Z,1976.27
2018-11-14T21:58:06.741Z,1958.63
2018-11-14T22:00:35.786Z,1890.00
2018-11-14T22:03:03.952Z,1878.40
2018-11-14T22:05:32.046Z,1850.70
2018-11-14T22:07:59.901Z,1885.03
2018-11-14T22:10:27.781Z,1957.23
2018-11-14T22:12:55.618Z,1844.50
2018-11-14T22:15:24.509Z,1892.93
2018-11-14T22:17:52.467Z,1920.03
2018-11-14T22:20:22.769Z,1987.50
2018-11-14T22:22:50.646Z,1893.33
2018-11-14T22:25:20.115Z,1988.30
2018-11-14T22:27:47.969Z,1989.10
2018-11-14T22:30:17.606Z,1896.07
2018-11-14T22:32:45.461Z,1981.63
2018-11-14T22:35:14.641Z,1999.90
2018-11-14T22:37:42.484Z,1999.90
2018-11-14T22:40:11.880Z,1999.90
2018-11-14T22:42:39.730Z,1879.47
2018-11-14T22:45:08.497Z,1974.73
2018-11-14T22:47:36.599Z,1999.90
2018-11-14T22:50:04.962Z,1999.90
2018-11-14T22:52:32.860Z,1992.63
2018-11-14T22:55:00.710Z,1977.13
2018-11-14T22:57:28.551Z,1999.90
2018-11-14T22:59:56.429Z,1999.90
2018-11-14T23:02:24.387Z,1999.90
2018-11-14T23:04:52.230Z,1999.90
2018-11-14T23:07:20.092Z,1999.90
2018-11-14T23:09:47.953Z,1999.90
2018-11-14T23:12:15.799Z,1999.90
2018-11-14T23:14:43.648Z,1999.90
2018-11-14T23:17:11.486Z,1996.83
2018-11-14T23:19:39.415Z,1999.90
2018-11-14T23:22:07.318Z,1999.90
2018-11-14T23:24:35.163Z,1999.90
2018-11-14T23:27:03.015Z,1999.90
2018-11-14T23:29:30.895Z,1999.90
2018-11-14T23:31:58.817Z,1999.90
2018-11-14T23:34:26.711Z,1999.90
2018-11-14T23:36:54.579Z,1999.90
2018-11-14T23:39:22.427Z,1999.90
2018-11-14T23:41:50.281Z,1999.90
2018-11-14T23:44:18.118Z,1999.90
2018-11-14T23:46:46.843Z,1999.90
2018-11-14T23:49:14.778Z,1999.90
2018-11-14T23:51:42.626Z,1999.90
2018-11-14T23:54:10.487Z,1999.90
2018-11-14T23:56:38.342Z,1999.90
2018-11-14T23:59:06.275Z,1999.90
